Idalou, TX (79329)

10:48 PM CDT on May 03, 2015 (GMT -0500)
Lubbock International | | Change Station
CLOSE
Current Station
Airport
Location: Lubbock,
Elevation: 3241 ft
Nearby Weather Stations

Elev 3241 ft 33.67 °N, 101.82 °W | Updated 25 minutes ago

Overcast
Overcast
76 °F
Feels Like 76 °F
N
14
Wind Variable Wind from SSW

Today
High -- | Low -- °F
--% Chance of Precip.
Yesterday
High -- | Low -- °F
Precip. -- in
6:56 AM 8:31 PM
Full, 100% visible
Pressure 29.96 in
Visibility 10.0 miles
Clouds Mostly Cloudy 10000 ft
Overcast 20000 ft
Dew Point 44 °F
Humidity 32%
Rainfall 0.00 in
Snow Depth Not available.
UV 0 out of 12
Pollen 6.30 out of 12
Air Quality Not available.
Flu Activity Sporadic
SPECI KLBB 040323Z 21012KT 10SM BKN100 OVC200 24/07 A2996 RMK AO2 WSHFT 0305 FRQ LTGICCG DSNT W-N CB DSNT W-N MOV NE T02440067

More Conditions Fewer Conditions

Pressure 29.96 in
Visibility 10.0 miles
Clouds Mostly Cloudy 10000 ft
Overcast 20000 ft
Dew Point 44 °F
Humidity 32%
Rainfall 0.00 in
Snow Depth Not available.
UV 0 out of 12
Pollen 6.30 out of 12
Air Quality Not available.
Flu Activity Sporadic
SPECI KLBB 040323Z 21012KT 10SM BKN100 OVC200 24/07 A2996 RMK AO2 WSHFT 0305 FRQ LTGICCG DSNT W-N CB DSNT W-N MOV NE T02440067

More Conditions Fewer Conditions

Nepal has a long way to go to dig out and rebuild from a devastating earthquake. We have teamed up with several charities and organizations to make contributing to the relief effort as easy as possible.
How you can help: Portlight Strategies | Red Cross
Nowcast | as of 10:31 PM CDT on May 3, 2015

Through midnight...scattered thunderstorms will move northeast at 20 mph across the western and north central South Plains into the far southern Texas Panhandle. The strongest storms were located near Pep...Dimmitt...and Plainview but overall storms are slowly starting to decrease in intensity. Locally heavy rainfall could result in isolated amounts near one quarter of an inch but most areas will only see around one tenth of an inch. Occasional lightning and wind gusts to 50 mph will be possible in the storms...and patchy blowing dust will also occur away from the thunderstorms.

×

10-Day Weather Forecast

Almanac

Astronomy

May. 03, 2015 Rise Set
Actual Time
Civil Twilight
Nautical Twilight
Astronomical Twilight
Moon
Length of Visible Light
Length of Day
Tomorrow will be .
, % of the Moon is Illuminated

Today's Extremes

State Highs State Lows

Community

WunderPhotos

Upload Photos

1,818,497 photos uploaded!

WunderBlogs® & News

Nearby

Air Quality

  Air Quality AQ Index Pollutant
Not available.

Snow Depth

Station Depth Elevation

Earthquake Activity

City Distance Mag. Time & Date
Minimum magnitude displayed is 2.5.

Coastal Water Temperatures

Place Temperature

Stations

Nearby Weather Stations

Station Location Temp. Windchill Dew Point Humidity Wind Precip. Elev Updated Type